Time;durP1;ratioP1;P1;durP2;ratioP2;P2;SDS_P1;SDS_P2;PMS_P1;PMS_P2;Temp;Humidity;BMP_temperature;BMP_pressure;BME280_temperature;BME280_humidity;BME280_pressure;Samples;Min_cycle;Max_cycle;Signal;HPM_P1;HPM_P2
2024/04/25 00:00:11;;;;;;;45.40;36.40;;;;;;;4.81;100.00;97863.23;109559;1251;59854;-76
2024/04/25 00:02:58;;;;;;;43.20;34.70;;;;;;;4.81;100.00;97864.45;109479;1251;64346;-77
2024/04/25 00:05:24;;;;;;;40.00;33.10;;;;;;;4.81;100.00;97864.42;109520;1251;59921;-77
2024/04/25 00:07:51;;;;;;;36.50;30.30;;;;;;;4.82;100.00;97863.00;109578;1251;59898;-76
2024/04/25 00:10:17;;;;;;;41.10;31.80;;;;;;;4.79;100.00;97855.21;109536;1250;59844;-77
2024/04/25 00:12:43;;;;;;;44.40;34.50;;;;;;;4.78;100.00;97860.39;109515;1251;60122;-76
2024/04/25 00:15:10;;;;;;;42.40;32.60;;;;;;;4.79;100.00;97864.58;109566;1251;59868;-77
2024/04/25 00:17:36;;;;;;;37.60;32.10;;;;;;;4.80;100.00;97860.83;109210;1251;59935;-78
2024/04/25 00:20:04;;;;;;;44.90;36.40;;;;;;;4.81;100.00;97863.92;109498;1251;59840;-76
2024/04/25 00:22:30;;;;;;;43.80;34.90;;;;;;;4.82;100.00;97865.98;109565;1251;67034;-78
2024/04/25 00:24:57;;;;;;;42.60;34.90;;;;;;;4.83;100.00;97864.86;109610;1251;60118;-77
2024/04/25 00:27:23;;;;;;;46.00;35.70;;;;;;;4.82;100.00;97861.70;109511;1251;59877;-77
2024/04/25 00:29:50;;;;;;;42.40;32.50;;;;;;;4.83;100.00;97864.46;109574;1251;59890;-78
2024/04/25 00:32:16;;;;;;;43.20;33.90;;;;;;;4.83;100.00;97865.90;109587;1251;59756;-78
2024/04/25 00:34:42;;;;;;;45.40;35.20;;;;;;;4.83;100.00;97870.82;109542;1250;59815;-77
2024/04/25 00:37:09;;;;;;;43.10;34.60;;;;;;;4.83;100.00;97867.15;109556;1251;60369;-78
2024/04/25 00:39:35;;;;;;;44.30;36.20;;;;;;;4.81;100.00;97868.31;109533;1251;60179;-77
2024/04/25 00:42:01;;;;;;;46.20;34.70;;;;;;;4.79;100.00;97867.53;109566;1251;59770;-76
2024/04/25 00:44:28;;;;;;;45.50;36.60;;;;;;;4.79;100.00;97868.60;109545;1251;59702;-77
2024/04/25 00:46:56;;;;;;;47.20;38.00;;;;;;;4.80;100.00;97870.83;109612;1250;60007;-77
2024/04/25 00:49:22;;;;;;;45.50;36.10;;;;;;;4.81;100.00;97866.19;109535;1251;59985;-76
2024/04/25 00:51:50;;;;;;;45.70;36.30;;;;;;;4.82;100.00;97867.23;109483;1251;64761;-77
2024/04/25 00:54:16;;;;;;;45.10;34.20;;;;;;;4.82;100.00;97867.55;109536;1251;60000;-77
2024/04/25 00:56:44;;;;;;;49.60;38.70;;;;;;;4.81;100.00;97869.18;109588;1251;59723;-77
2024/04/25 00:59:12;;;;;;;45.00;35.30;;;;;;;4.81;100.00;97869.55;109573;1251;66674;-77
2024/04/25 01:01:42;;;;;;;48.10;36.90;;;;;;;4.82;100.00;97869.86;108807;1251;1002362;-77
2024/04/25 01:04:10;;;;;;;48.20;37.50;;;;;;;4.82;100.00;97869.66;109607;1251;63883;-77
2024/04/25 01:06:37;;;;;;;46.40;36.60;;;;;;;4.83;100.00;97868.88;109530;1251;59729;-77
2024/04/25 01:09:03;;;;;;;51.90;38.80;;;;;;;4.83;100.00;97870.65;109537;1250;59797;-77
2024/04/25 01:11:32;;;;;;;50.30;38.50;;;;;;;4.84;100.00;97868.33;109509;1251;59946;-78
2024/04/25 01:14:00;;;;;;;51.30;38.70;;;;;;;4.84;100.00;97867.97;109547;1251;59900;-77
2024/04/25 01:16:26;;;;;;;49.80;36.80;;;;;;;4.84;100.00;97870.59;109515;1251;62642;-76
2024/04/25 01:18:53;;;;;;;46.70;37.90;;;;;;;4.84;100.00;97871.67;109536;1251;59746;-77
2024/04/25 01:21:19;;;;;;;53.30;39.60;;;;;;;4.83;100.00;97871.88;109542;1251;59781;-77
2024/04/25 01:23:50;;;;;;;54.80;38.70;;;;;;;4.84;100.00;97875.16;109371;1251;60201;-78
2024/04/25 01:26:17;;;;;;;47.00;37.00;;;;;;;4.84;100.00;97874.12;109574;1251;61501;-78
2024/04/25 01:28:44;;;;;;;45.30;34.30;;;;;;;4.83;100.00;97872.91;109506;1251;65062;-77
2024/04/25 01:31:11;;;;;;;50.80;37.40;;;;;;;4.83;100.00;97873.80;109539;1251;60081;-77
2024/04/25 01:33:38;;;;;;;48.40;36.80;;;;;;;4.83;100.00;97874.52;109571;1251;59737;-78
2024/04/25 01:36:05;;;;;;;47.80;36.20;;;;;;;4.84;100.00;97877.08;109501;1251;67564;-78
2024/04/25 01:38:31;;;;;;;43.10;35.30;;;;;;;4.84;100.00;97879.41;109363;1251;59857;-77
2024/04/25 01:40:58;;;;;;;49.50;36.80;;;;;;;4.83;100.00;97879.84;109489;1251;60439;-78
2024/04/25 01:43:24;;;;;;;50.00;36.40;;;;;;;4.80;100.00;97880.52;109589;1251;59778;-77
2024/04/25 01:45:51;;;;;;;49.20;35.10;;;;;;;4.77;100.00;97882.65;109541;1251;59799;-77
2024/04/25 01:48:17;;;;;;;48.20;37.20;;;;;;;4.75;100.00;97883.46;109526;1251;60248;-77
2024/04/25 01:50:43;;;;;;;48.30;35.80;;;;;;;4.73;100.00;97880.57;109595;1251;59923;-77
2024/04/25 01:53:10;;;;;;;42.40;34.20;;;;;;;4.72;100.00;97879.59;109544;1251;59966;-77
2024/04/25 01:55:36;;;;;;;47.30;36.10;;;;;;;4.72;100.00;97885.77;109514;1251;59768;-76
2024/04/25 01:58:03;;;;;;;41.70;33.60;;;;;;;4.71;100.00;97885.80;109569;1251;59941;-76
2024/04/25 02:00:29;;;;;;;42.40;33.70;;;;;;;4.69;100.00;97884.70;109326;1251;59959;-76
2024/04/25 02:02:56;;;;;;;43.00;32.50;;;;;;;4.68;100.00;97881.84;109509;1251;60137;-76
2024/04/25 02:05:22;;;;;;;41.10;32.90;;;;;;;4.65;100.00;97878.81;109540;1251;59851;-77
2024/04/25 02:07:49;;;;;;;38.90;30.70;;;;;;;4.61;100.00;97877.58;109584;1251;59816;-76
2024/04/25 02:10:16;;;;;;;40.90;30.80;;;;;;;4.60;100.00;97879.08;109530;1251;59817;-77
2024/04/25 02:12:42;;;;;;;39.10;31.20;;;;;;;4.58;100.00;97882.90;109585;1251;65397;-77
2024/04/25 02:15:09;;;;;;;37.30;29.60;;;;;;;4.57;100.00;97882.29;109617;1251;59727;-78
2024/04/25 02:17:39;;;;;;;38.40;30.50;;;;;;;4.55;100.00;97879.74;109573;1251;59871;-77
2024/04/25 02:25:13;;;;;;;38.60;31.50;;;;;;;4.53;100.00;97877.59;109349;1251;59786;-78
2024/04/25 02:25:39;;;;;;;42.70;33.60;;;;;;;4.46;100.00;97875.39;109534;1251;66584;-77
2024/04/25 02:28:05;;;;;;;39.70;31.80;;;;;;;4.42;100.00;97873.16;109557;1250;59851;-77
2024/04/25 02:30:32;;;;;;;38.60;32.60;;;;;;;4.36;100.00;97875.98;109339;1251;59932;-78
2024/04/25 02:32:58;;;;;;;39.30;31.00;;;;;;;4.29;100.00;97878.67;109546;1251;59686;-79
2024/04/25 02:35:25;;;;;;;40.30;34.10;;;;;;;4.22;100.00;97881.36;109556;1251;60157;-79
2024/04/25 02:37:51;;;;;;;47.30;35.20;;;;;;;4.17;100.00;97880.27;109632;1250;59804;-77
2024/04/25 02:40:18;;;;;;;47.20;35.10;;;;;;;4.15;100.00;97880.20;109580;1251;59806;-77
2024/04/25 02:42:45;;;;;;;48.70;36.20;;;;;;;4.13;100.00;97881.89;109528;1251;63775;-77
2024/04/25 02:45:11;;;;;;;50.50;35.90;;;;;;;4.13;100.00;97889.66;109564;1251;60076;-78
2024/04/25 02:47:37;;;;;;;45.20;34.90;;;;;;;4.12;100.00;97891.29;109324;1251;59914;-77
2024/04/25 02:50:04;;;;;;;45.50;34.20;;;;;;;4.11;100.00;97889.92;109529;1250;59846;-77
2024/04/25 02:52:31;;;;;;;44.80;34.50;;;;;;;4.11;100.00;97892.57;109540;1251;59835;-78
2024/04/25 02:54:58;;;;;;;48.00;35.20;;;;;;;4.12;100.00;97893.04;109576;1251;59898;-80
2024/04/25 02:57:24;;;;;;;43.50;34.30;;;;;;;4.14;100.00;97897.15;109117;1251;59897;-77
2024/04/25 02:59:51;;;;;;;44.10;33.00;;;;;;;4.15;100.00;97896.70;109498;1251;59824;-77
2024/04/25 03:02:17;;;;;;;46.20;34.70;;;;;;;4.17;100.00;97898.18;109573;1250;59784;-76
2024/04/25 03:04:43;;;;;;;42.80;33.80;;;;;;;4.18;100.00;97898.30;109509;1251;59779;-76
2024/04/25 03:07:10;;;;;;;46.70;36.30;;;;;;;4.18;100.00;97896.17;109536;1251;59801;-77
2024/04/25 03:09:36;;;;;;;45.10;35.10;;;;;;;4.18;100.00;97894.05;109564;1250;60087;-77
2024/04/25 03:12:03;;;;;;;44.20;34.00;;;;;;;4.18;100.00;97898.45;109337;1251;59858;-77
2024/04/25 03:14:29;;;;;;;45.90;35.60;;;;;;;4.18;100.00;97897.25;109553;1251;59849;-77
2024/04/25 03:16:56;;;;;;;43.70;34.10;;;;;;;4.15;100.00;97899.35;109562;1250;59990;-77
2024/04/25 03:19:23;;;;;;;45.00;34.50;;;;;;;4.11;100.00;97900.30;109566;1251;65285;-78
2024/04/25 03:21:49;;;;;;;46.50;32.60;;;;;;;4.07;100.00;97899.48;109509;1251;59712;-77
2024/04/25 03:24:15;;;;;;;41.70;31.50;;;;;;;4.02;100.00;97900.33;109380;1251;60024;-78
2024/04/25 03:26:42;;;;;;;40.70;32.30;;;;;;;3.96;100.00;97899.58;109572;1250;59776;-77
2024/04/25 03:29:08;;;;;;;41.80;32.10;;;;;;;3.89;100.00;97901.39;109563;1251;59718;-76
2024/04/25 03:31:35;;;;;;;42.60;31.50;;;;;;;3.82;100.00;97903.02;109522;1251;59926;-77
2024/04/25 03:34:01;;;;;;;40.90;30.30;;;;;;;3.75;100.00;97904.81;109609;1251;59822;-77
2024/04/25 03:36:27;;;;;;;42.80;31.40;;;;;;;3.69;100.00;97905.85;109579;1251;60224;-78
2024/04/25 03:38:54;;;;;;;38.50;29.90;;;;;;;3.63;100.00;97910.05;109581;1251;59828;-77
2024/04/25 03:41:20;;;;;;;39.00;30.50;;;;;;;3.58;100.00;97915.13;109587;1250;60080;-77
2024/04/25 03:43:46;;;;;;;38.10;29.00;;;;;;;3.52;100.00;97918.95;109579;1251;59891;-77
2024/04/25 03:46:13;;;;;;;41.40;30.50;;;;;;;3.48;100.00;97919.84;109523;1251;60118;-77
2024/04/25 03:48:39;;;;;;;44.70;32.70;;;;;;;3.46;100.00;97917.48;109563;1251;59841;-77
2024/04/25 03:51:05;;;;;;;38.00;30.10;;;;;;;3.44;100.00;97917.11;109573;1251;59831;-76
2024/04/25 03:53:32;;;;;;;37.30;30.80;;;;;;;3.42;100.00;97918.77;109550;1250;60167;-77
2024/04/25 03:55:58;;;;;;;40.50;31.50;;;;;;;3.42;100.00;97922.14;109551;1251;59988;-77
2024/04/25 03:58:25;;;;;;;39.20;30.60;;;;;;;3.42;100.00;97926.70;109277;1251;60088;-76
2024/04/25 04:00:51;;;;;;;43.90;32.20;;;;;;;3.42;100.00;97924.58;109547;1251;59768;-77
2024/04/25 04:03:17;;;;;;;40.20;32.60;;;;;;;3.47;100.00;97920.45;109565;1251;60287;-77
2024/04/25 04:05:44;;;;;;;39.70;30.20;;;;;;;3.60;100.00;97919.88;109627;1251;59849;-78
2024/04/25 04:08:10;;;;;;;39.10;29.70;;;;;;;3.69;100.00;97923.45;109550;1251;59810;-77
2024/04/25 04:10:37;;;;;;;35.00;27.50;;;;;;;3.77;100.00;97920.70;109554;1251;59878;-76
2024/04/25 04:13:03;;;;;;;30.70;25.90;;;;;;;3.91;100.00;97922.04;109281;1251;59866;-77
2024/04/25 04:15:30;;;;;;;29.40;25.60;;;;;;;4.16;100.00;97924.44;109566;1251;59812;-77
2024/04/25 04:17:56;;;;;;;29.60;25.70;;;;;;;4.51;100.00;97922.95;109539;1251;60140;-77
2024/04/25 04:20:22;;;;;;;27.60;24.60;;;;;;;4.97;100.00;97925.75;109577;1251;59827;-76
2024/04/25 04:22:49;;;;;;;33.20;29.20;;;;;;;5.33;100.00;97920.33;109563;1251;59998;-76
2024/04/25 04:25:15;;;;;;;28.50;25.40;;;;;;;5.68;100.00;97922.72;109529;1251;60267;-77
2024/04/25 04:27:42;;;;;;;27.80;24.80;;;;;;;6.34;100.00;97923.55;109576;1250;59989;-78
2024/04/25 04:30:08;;;;;;;29.30;26.30;;;;;;;6.96;100.00;97917.75;109576;1251;60270;-78
2024/04/25 04:32:35;;;;;;;28.10;25.30;;;;;;;7.50;100.00;97915.87;109334;1250;59962;-77
2024/04/25 04:35:01;;;;;;;23.10;21.00;;;;;;;8.00;100.00;97915.06;109549;1251;59760;-77
2024/04/25 04:37:28;;;;;;;26.60;23.80;;;;;;;8.48;100.00;97914.16;109618;1251;59867;-78
2024/04/25 04:39:54;;;;;;;27.40;24.80;;;;;;;8.78;100.00;97914.36;109569;1250;60085;-77
2024/04/25 04:42:20;;;;;;;25.20;22.80;;;;;;;9.16;100.00;97920.64;109501;1251;60198;-77
2024/04/25 04:44:47;;;;;;;24.80;22.30;;;;;;;9.55;100.00;97925.53;109581;1251;59755;-77
2024/04/25 04:47:13;;;;;;;29.40;26.60;;;;;;;9.81;100.00;97929.66;109564;1251;60010;-77
2024/04/25 04:49:40;;;;;;;29.40;26.60;;;;;;;10.12;100.00;97930.66;109563;1251;60257;-78
2024/04/25 04:52:06;;;;;;;27.90;25.30;;;;;;;10.41;100.00;97932.59;109583;1251;60822;-76
2024/04/25 04:54:32;;;;;;;26.70;24.20;;;;;;;10.71;100.00;97937.54;109587;1251;59917;-77
2024/04/25 04:56:58;;;;;;;25.40;23.00;;;;;;;10.86;100.00;97936.06;109537;1251;60104;-77
2024/04/25 04:59:25;;;;;;;23.90;21.70;;;;;;;10.79;100.00;97939.14;109608;1251;60009;-76
2024/04/25 05:01:52;;;;;;;23.60;21.30;;;;;;;11.03;100.00;97939.77;109605;1250;65676;-79
2024/04/25 05:04:18;;;;;;;22.60;20.60;;;;;;;11.36;100.00;97937.60;109571;1251;59786;-76
2024/04/25 05:06:45;;;;;;;23.20;21.00;;;;;;;11.63;100.00;97936.50;109557;1251;59864;-76
2024/04/25 05:09:11;;;;;;;21.60;19.70;;;;;;;11.99;100.00;97933.34;109550;1251;59890;-76
2024/04/25 05:11:38;;;;;;;22.20;20.30;;;;;;;12.42;100.00;97931.22;109596;1251;60009;-77
2024/04/25 05:14:04;;;;;;;22.80;20.70;;;;;;;12.78;100.00;97932.53;109511;1251;59825;-77
2024/04/25 05:16:33;;;;;;;22.40;20.20;;;;;;;13.05;100.00;97933.58;109603;1251;59807;-77
2024/04/25 05:19:00;;;;;;;22.00;20.00;;;;;;;13.29;100.00;97934.71;109556;1251;64121;-77
2024/04/25 05:21:29;;;;;;;22.60;20.50;;;;;;;13.50;100.00;97932.60;109493;1251;59825;-77
2024/04/25 05:23:55;;;;;;;22.50;20.50;;;;;;;13.53;100.00;97934.25;109547;1253;59806;-76
2024/04/25 05:26:23;;;;;;;23.40;21.30;;;;;;;13.51;100.00;97935.98;109562;1251;66933;-77
2024/04/25 05:28:50;;;;;;;22.20;20.20;;;;;;;13.36;100.00;97942.95;109554;1251;69011;-77
2024/04/25 05:31:16;;;;;;;21.00;19.00;;;;;;;13.40;100.00;97940.35;109524;1251;59925;-76
2024/04/25 05:33:47;;;;;;;20.40;18.50;;;;;;;13.62;100.00;97934.45;109593;1250;59759;-77
2024/04/25 05:36:14;;;;;;;20.30;18.10;;;;;;;13.83;100.00;97934.41;109559;1251;59866;-77
2024/04/25 05:38:40;;;;;;;19.80;18.10;;;;;;;13.93;100.00;97938.42;109562;1251;60187;-77
2024/04/25 05:41:07;;;;;;;23.60;18.30;;;;;;;13.86;100.00;97937.33;109549;1251;59795;-76
2024/04/25 05:43:33;;;;;;;18.00;16.20;;;;;;;13.72;100.00;97938.07;109531;1251;65214;-77
2024/04/25 05:45:59;;;;;;;17.40;15.60;;;;;;;13.85;100.00;97942.17;109545;1251;59855;-76
2024/04/25 05:48:32;;;;;;;17.40;15.50;;;;;;;13.98;100.00;97943.80;109585;1251;59742;-77
2024/04/25 05:50:59;;;;;;;17.60;15.80;;;;;;;14.21;100.00;97946.56;109551;1253;66865;-77
2024/04/25 05:53:26;;;;;;;16.90;15.10;;;;;;;14.42;100.00;97948.02;109578;1251;60158;-77
2024/04/25 05:55:53;;;;;;;15.90;14.60;;;;;;;14.57;100.00;97950.49;109565;1251;62622;-78
2024/04/25 05:58:19;;;;;;;17.90;16.30;;;;;;;14.58;100.00;97951.65;109597;1251;60065;-77
2024/04/25 06:00:45;;;;;;;15.80;14.30;;;;;;;14.37;100.00;97955.34;109370;1251;60157;-77
2024/04/25 06:03:12;;;;;;;16.10;14.30;;;;;;;14.07;100.00;97956.83;109563;1251;59894;-78
2024/04/25 06:05:38;;;;;;;15.80;14.20;;;;;;;13.80;100.00;97956.44;109611;1250;59764;-78
2024/04/25 06:08:06;;;;;;;16.30;14.80;;;;;;;13.77;100.00;97960.84;109524;1251;60214;-77
2024/04/25 06:10:32;;;;;;;15.20;13.50;;;;;;;13.75;100.00;97960.63;109317;1251;60203;-77
2024/04/25 06:12:58;;;;;;;15.40;13.70;;;;;;;13.76;100.00;97961.33;109601;1251;59719;-77
2024/04/25 06:15:25;;;;;;;13.60;12.30;;;;;;;13.62;100.00;97966.22;109555;1253;59872;-77
2024/04/25 06:17:52;;;;;;;13.70;12.20;;;;;;;13.57;100.00;97966.99;109570;1251;60177;-77
2024/04/25 06:20:20;;;;;;;13.80;12.30;;;;;;;13.55;100.00;97968.64;109591;1251;64067;-78
2024/04/25 06:22:46;;;;;;;13.70;12.40;;;;;;;13.48;100.00;97967.73;109594;1251;59866;-77
2024/04/25 06:25:13;;;;;;;13.10;11.90;;;;;;;13.30;100.00;97970.67;109593;1251;59784;-76
2024/04/25 06:27:41;;;;;;;12.90;11.80;;;;;;;13.14;100.00;97974.80;109524;1251;60092;-77
2024/04/25 06:30:07;;;;;;;14.50;13.00;;;;;;;13.03;100.00;97974.63;109535;1250;59859;-77
2024/04/25 06:32:34;;;;;;;15.20;13.70;;;;;;;12.94;100.00;97978.27;109238;1251;62593;-77
2024/04/25 06:35:00;;;;;;;13.70;12.40;;;;;;;13.04;100.00;97981.30;109503;1251;59899;-77
2024/04/25 06:37:26;;;;;;;12.50;11.30;;;;;;;13.06;100.00;97977.92;109551;1251;59873;-77
2024/04/25 06:39:52;;;;;;;15.00;13.10;;;;;;;12.83;100.00;97985.80;109256;1251;59838;-77
2024/04/25 06:42:19;;;;;;;13.00;11.90;;;;;;;12.63;100.00;97990.48;109496;1250;59922;-76
2024/04/25 06:44:45;;;;;;;12.60;11.40;;;;;;;12.43;100.00;97988.10;109548;1251;59803;-77
2024/04/25 06:47:12;;;;;;;13.20;12.00;;;;;;;12.37;100.00;97988.67;109572;1251;60093;-77
2024/04/25 06:49:38;;;;;;;14.20;12.90;;;;;;;12.28;100.00;97993.56;109586;1251;59857;-77
2024/04/25 06:52:05;;;;;;;14.10;12.70;;;;;;;12.31;100.00;97996.38;109555;1251;59868;-77
2024/04/25 06:54:32;;;;;;;14.90;13.60;;;;;;;12.30;100.00;97999.50;109593;1250;59826;-77
2024/04/25 06:56:58;;;;;;;16.10;14.50;;;;;;;12.03;100.00;98004.79;109548;1251;64047;-78
2024/04/25 06:59:25;;;;;;;16.10;14.40;;;;;;;11.81;100.00;98003.83;109503;1251;59787;-77
2024/04/25 07:01:54;;;;;;;16.60;14.90;;;;;;;11.59;100.00;98007.11;109563;1251;60600;-77
2024/04/25 07:04:20;;;;;;;15.90;14.40;;;;;;;11.43;100.00;98012.09;109560;1251;66890;-77
2024/04/25 07:06:46;;;;;;;13.50;12.20;;;;;;;11.22;100.00;98015.10;109595;1251;59936;-76
2024/04/25 07:09:12;;;;;;;12.80;11.60;;;;;;;10.93;100.00;98013.66;109218;1251;59838;-76
2024/04/25 07:11:39;;;;;;;11.90;10.90;;;;;;;10.60;100.00;98016.35;109534;1251;59791;-76
2024/04/25 07:14:05;;;;;;;13.50;12.30;;;;;;;10.43;100.00;98016.23;109652;1251;59859;-76
2024/04/25 07:16:31;;;;;;;12.60;11.50;;;;;;;10.49;100.00;98015.90;109309;1250;59972;-76
2024/04/25 07:18:58;;;;;;;12.80;11.50;;;;;;;10.72;100.00;98014.91;109505;1251;59849;-77
2024/04/25 07:21:27;;;;;;;12.90;11.50;;;;;;;10.97;100.00;98014.59;109556;1251;59760;-77
2024/04/25 07:23:56;;;;;;;12.60;11.40;;;;;;;11.13;100.00;98016.20;109583;1251;59840;-77
2024/04/25 07:26:23;;;;;;;13.70;12.50;;;;;;;11.19;100.00;98019.24;109580;1251;59785;-77
2024/04/25 07:28:49;;;;;;;12.60;11.40;;;;;;;11.07;100.00;98021.15;109531;1251;59833;-76
2024/04/25 07:31:15;;;;;;;10.60;9.60;;;;;;;10.83;100.00;98025.50;109557;1251;59832;-77
2024/04/25 07:33:42;;;;;;;11.40;10.40;;;;;;;10.65;100.00;98025.80;109539;1251;60025;-77
2024/04/25 07:36:08;;;;;;;12.40;11.20;;;;;;;10.76;100.00;98026.08;109529;1251;60006;-77
2024/04/25 07:38:34;;;;;;;11.60;10.50;;;;;;;10.91;100.00;98026.61;109257;1253;59908;-77
2024/04/25 07:41:01;;;;;;;13.30;12.00;;;;;;;11.00;100.00;98026.24;109540;1252;60179;-77
2024/04/25 07:43:27;;;;;;;12.40;10.60;;;;;;;11.08;100.00;98028.02;109547;1251;59858;-77
2024/04/25 07:45:53;;;;;;;12.30;11.20;;;;;;;11.14;100.00;98028.56;109512;1251;59953;-77
2024/04/25 07:48:20;;;;;;;11.30;10.30;;;;;;;11.26;100.00;98027.39;109536;1251;59841;-78
2024/04/25 07:50:46;;;;;;;12.20;11.20;;;;;;;11.50;100.00;98028.05;109601;1251;59873;-77
2024/04/25 07:53:12;;;;;;;11.60;10.60;;;;;;;11.67;100.00;98026.39;109538;1250;59901;-77
2024/04/25 07:55:39;;;;;;;11.40;10.30;;;;;;;11.66;100.00;98022.87;109547;1251;59839;-78
2024/04/25 07:58:06;;;;;;;11.20;10.10;;;;;;;11.59;100.00;98028.52;109589;1251;60085;-76
2024/04/25 08:00:32;;;;;;;11.00;9.70;;;;;;;11.53;100.00;98026.88;109536;1251;59705;-78
2024/04/25 08:02:59;;;;;;;11.00;9.90;;;;;;;11.52;100.00;98025.16;109297;1251;60971;-77
2024/04/25 08:05:25;;;;;;;11.00;9.90;;;;;;;11.40;100.00;98022.60;109607;1251;59787;-77
2024/04/25 08:07:51;;;;;;;10.30;9.30;;;;;;;11.24;100.00;98021.36;109585;1251;59890;-77
2024/04/25 08:10:18;;;;;;;11.80;10.80;;;;;;;11.24;100.00;98020.23;109536;1251;59879;-77
2024/04/25 08:12:44;;;;;;;11.80;10.60;;;;;;;11.41;100.00;98018.28;109575;1251;59830;-77
2024/04/25 08:15:10;;;;;;;11.40;10.40;;;;;;;11.71;100.00;98010.39;109616;1251;59905;-76
2024/04/25 08:17:37;;;;;;;11.70;10.20;;;;;;;12.00;100.00;98007.13;109581;1251;59977;-78
2024/04/25 08:20:04;;;;;;;11.00;10.00;;;;;;;12.32;100.00;98007.34;109593;1251;59931;-78
2024/04/25 08:22:31;;;;;;;10.10;9.20;;;;;;;12.62;100.00;98009.39;109588;1251;59781;-78
2024/04/25 08:24:57;;;;;;;10.70;9.70;;;;;;;12.94;100.00;98017.36;109528;1251;60019;-78
2024/04/25 08:27:23;;;;;;;10.10;9.30;;;;;;;13.08;100.00;98023.16;109558;1251;59927;-78
2024/04/25 08:29:50;;;;;;;10.10;9.10;;;;;;;13.16;100.00;98018.34;109573;1251;59834;-78
2024/04/25 08:32:17;;;;;;;9.80;9.00;;;;;;;13.40;100.00;98019.52;109533;1252;59841;-79
2024/04/25 08:34:44;;;;;;;9.30;7.80;;;;;;;13.62;100.00;98016.92;109506;1251;59894;-77
2024/04/25 08:37:10;;;;;;;10.50;9.40;;;;;;;13.69;100.00;98020.66;109545;1251;59872;-76
2024/04/25 08:39:36;;;;;;;10.00;9.10;;;;;;;13.47;100.00;98024.36;109592;1251;59819;-77
2024/04/25 08:42:05;;;;;;;9.50;8.60;;;;;;;13.33;100.00;98019.05;109534;1251;60056;-77
2024/04/25 08:44:32;;;;;;;9.10;8.00;;;;;;;13.24;100.00;98021.54;109544;1251;59809;-77
2024/04/25 08:46:59;;;;;;;9.40;8.60;;;;;;;13.22;100.00;98025.28;109582;1251;59871;-77
2024/04/25 08:49:27;;;;;;;9.10;8.20;;;;;;;13.28;100.00;98025.78;109513;1251;59764;-77
2024/04/25 08:51:53;;;;;;;9.30;8.60;;;;;;;13.32;100.00;98022.38;109575;1251;59686;-77
2024/04/25 08:54:20;;;;;;;10.40;9.40;;;;;;;13.10;100.00;98022.41;109270;1251;60236;-77
2024/04/25 08:56:47;;;;;;;9.00;8.20;;;;;;;12.94;100.00;98023.40;109588;1250;59789;-77
2024/04/25 08:59:13;;;;;;;8.40;7.70;;;;;;;12.97;100.00;98024.02;109287;1250;64082;-77
2024/04/25 09:01:42;;;;;;;8.90;8.10;;;;;;;13.04;100.00;98026.75;109475;1251;59833;-77
2024/04/25 09:04:14;;;;;;;8.90;8.10;;;;;;;12.96;100.00;98031.59;109522;1251;59755;-77
2024/04/25 09:06:40;;;;;;;9.00;8.20;;;;;;;12.86;100.00;98035.59;109581;1251;66853;-77
2024/04/25 09:09:07;;;;;;;10.30;9.40;;;;;;;12.81;100.00;98035.48;109289;1251;59854;-77
2024/04/25 09:11:33;;;;;;;10.40;9.40;;;;;;;12.86;100.00;98033.02;109545;1251;63848;-78
2024/04/25 09:14:02;;;;;;;9.50;8.70;;;;;;;12.92;100.00;98031.91;109563;1251;59773;-77
2024/04/25 09:16:28;;;;;;;9.40;8.60;;;;;;;12.86;100.00;98030.58;109540;1251;59819;-77
2024/04/25 09:18:54;;;;;;;8.90;8.10;;;;;;;12.85;100.00;98031.01;109553;1251;59978;-77
2024/04/25 09:21:21;;;;;;;6.80;6.30;;;;;;;12.91;100.00;98034.58;109523;1252;59837;-77
2024/04/25 09:23:47;;;;;;;6.80;6.30;;;;;;;12.89;100.00;98036.55;109561;1251;59850;-77
2024/04/25 09:26:14;;;;;;;7.90;7.20;;;;;;;12.75;100.00;98039.93;109367;1251;59915;-76
2024/04/25 09:28:40;;;;;;;9.00;8.30;;;;;;;12.58;100.00;98044.17;109585;1251;59899;-78
2024/04/25 09:31:07;;;;;;;7.80;7.20;;;;;;;12.39;100.00;98047.61;109544;1251;60159;-78
2024/04/25 09:33:34;;;;;;;7.80;7.10;;;;;;;12.40;100.00;98048.26;109570;1251;60103;-77
2024/04/25 09:36:01;;;;;;;8.20;7.40;;;;;;;12.42;100.00;98043.81;109590;1251;64059;-76
2024/04/25 09:38:27;;;;;;;7.60;7.00;;;;;;;12.54;100.00;98048.81;109518;1251;59887;-76
2024/04/25 09:40:56;;;;;;;7.30;6.80;;;;;;;12.65;100.00;98042.31;109590;1251;59891;-75
2024/04/25 09:43:24;;;;;;;8.30;7.40;;;;;;;12.67;100.00;98036.55;109344;1251;66568;-76
2024/04/25 09:45:56;;;;;;;7.80;7.10;;;;;;;12.70;100.00;98038.77;109541;1251;59854;-77
2024/04/25 09:48:25;;;;;;;8.00;7.30;;;;;;;12.63;100.00;98035.92;109572;1251;63687;-75
2024/04/25 09:51:01;;;;;;;8.60;7.80;;;;;;;12.51;100.00;98038.16;109506;1251;59973;-76
2024/04/25 09:54:06;;;;;;;7.60;7.00;;;;;;;12.57;100.00;98035.38;109534;1252;59743;-76
2024/04/25 09:56:35;;;;;;;8.40;7.60;;;;;;;12.66;100.00;98031.67;108971;1257;67739;-77
2024/04/25 09:59:10;;;;;;;7.20;6.50;;;;;;;12.79;100.00;98031.90;108996;1259;60485;-76
2024/04/25 10:01:38;;;;;;;8.30;7.30;;;;;;;12.80;100.00;98033.96;108969;1259;64961;-77
2024/04/25 10:04:04;;;;;;;8.60;7.90;;;;;;;12.61;100.00;98033.95;108928;1258;60243;-76
2024/04/25 10:06:31;;;;;;;7.50;6.70;;;;;;;12.42;100.00;98036.89;108888;1258;60054;-76
2024/04/25 10:08:58;;;;;;;7.80;7.10;;;;;;;12.43;100.00;98034.32;108960;1258;66835;-77
2024/04/25 10:11:28;;;;;;;7.30;6.70;;;;;;;12.56;100.00;98032.90;108960;1258;60333;-76
2024/04/25 10:13:54;;;;;;;8.50;7.80;;;;;;;12.84;100.00;98027.34;108965;1257;62512;-76
2024/04/25 10:16:22;;;;;;;8.90;8.10;;;;;;;13.01;100.00;98030.04;108971;1259;59920;-77
2024/04/25 10:18:49;;;;;;;7.40;6.80;;;;;;;13.01;100.00;98023.67;108946;1259;59964;-76
2024/04/25 10:21:16;;;;;;;5.50;5.10;;;;;;;12.87;100.00;98031.23;108974;1259;65679;-87
2024/04/25 10:23:42;;;;;;;5.00;4.60;;;;;;;12.78;100.00;98033.59;108978;1258;60139;-77
2024/04/25 10:26:21;;;;;;;6.30;5.80;;;;;;;12.82;100.00;98033.40;108975;1258;63125;-77
2024/04/25 10:29:03;;;;;;;5.60;5.10;;;;;;;13.03;100.00;98029.14;108944;1258;59883;-76
2024/04/25 10:31:36;;;;;;;5.60;4.00;;;;;;;13.22;100.00;98024.38;109075;1251;59817;-76
2024/04/25 10:34:04;;;;;;;5.80;5.40;;;;;;;13.19;100.00;98026.58;109530;1251;66955;-76
2024/04/25 10:36:32;;;;;;;6.10;5.30;;;;;;;13.01;100.00;98029.86;109583;1251;60280;-77
2024/04/25 10:38:59;;;;;;;5.00;4.60;;;;;;;12.99;99.69;98027.42;109538;1251;64059;-76
2024/04/25 10:41:36;;;;;;;5.60;5.10;;;;;;;13.18;99.80;98026.52;109561;1251;59831;-77
2024/04/25 10:44:03;;;;;;;6.30;5.80;;;;;;;13.32;98.34;98030.39;109600;1251;60127;-77
2024/04/25 10:46:29;;;;;;;5.60;5.10;;;;;;;13.22;96.84;98037.19;109608;1251;65369;-76
2024/04/25 10:48:56;;;;;;;5.90;5.40;;;;;;;13.07;91.50;98034.30;109533;1251;59752;-76
2024/04/25 10:51:23;;;;;;;5.60;5.10;;;;;;;13.02;87.48;98036.40;109509;1251;64028;-76
2024/04/25 10:53:49;;;;;;;5.40;5.00;;;;;;;12.90;87.28;98037.86;109571;1251;59820;-76
2024/04/25 10:56:17;;;;;;;5.80;5.20;;;;;;;12.81;88.16;98036.38;109553;1251;59761;-75
2024/04/25 10:58:56;;;;;;;5.10;4.70;;;;;;;12.79;88.00;98036.42;109459;1251;66845;-76
2024/04/25 11:01:28;;;;;;;5.20;4.60;;;;;;;12.88;84.00;98041.27;109542;1251;59899;-76
2024/04/25 11:03:56;;;;;;;4.60;4.20;;;;;;;12.94;81.22;98038.75;109504;1251;64066;-76
2024/04/25 11:06:24;;;;;;;5.20;4.70;;;;;;;13.01;80.90;98039.70;109454;1253;59826;-76
2024/04/25 11:08:51;;;;;;;5.10;4.70;;;;;;;13.03;80.22;98038.80;109515;1253;61675;-76
2024/04/25 11:11:18;;;;;;;4.30;4.00;;;;;;;13.06;80.92;98038.69;109242;1253;66860;-76